sensor_id;sensor_type;location;lat;lon;timestamp;pressure;altitude;pressure_sealevel;temperature
66180;BMP280;52986;44.028;20.466;2023-05-07T00:01:47;98156.69;;;10.06
66180;BMP280;52986;44.028;20.466;2023-05-07T00:04:13;98154.88;;;10.03
66180;BMP280;52986;44.028;20.466;2023-05-07T00:06:38;98154.94;;;9.99
66180;BMP280;52986;44.028;20.466;2023-05-07T00:09:05;98155.72;;;10.00
66180;BMP280;52986;44.028;20.466;2023-05-07T00:11:31;98158.03;;;9.98
66180;BMP280;52986;44.028;20.466;2023-05-07T00:13:56;98159.22;;;9.97
66180;BMP280;52986;44.028;20.466;2023-05-07T00:16:21;98164.16;;;9.98
66180;BMP280;52986;44.028;20.466;2023-05-07T00:18:47;98160.41;;;9.96
66180;BMP280;52986;44.028;20.466;2023-05-07T00:21:12;98159.75;;;9.92
66180;BMP280;52986;44.028;20.466;2023-05-07T00:23:38;98160.94;;;9.91
66180;BMP280;52986;44.028;20.466;2023-05-07T00:26:04;98158.47;;;9.84
66180;BMP280;52986;44.028;20.466;2023-05-07T00:28:29;98154.19;;;9.86
66180;BMP280;52986;44.028;20.466;2023-05-07T00:30:55;98162.13;;;9.90
66180;BMP280;52986;44.028;20.466;2023-05-07T00:33:20;98156.78;;;9.77
66180;BMP280;52986;44.028;20.466;2023-05-07T00:35:47;98159.22;;;9.71
66180;BMP280;52986;44.028;20.466;2023-05-07T00:38:13;98164.75;;;9.64
66180;BMP280;52986;44.028;20.466;2023-05-07T00:40:38;98170.63;;;9.59
66180;BMP280;52986;44.028;20.466;2023-05-07T00:43:04;98165.84;;;9.67
66180;BMP280;52986;44.028;20.466;2023-05-07T00:45:29;98171.94;;;9.67
66180;BMP280;52986;44.028;20.466;2023-05-07T00:47:56;98170.19;;;9.61
66180;BMP280;52986;44.028;20.466;2023-05-07T00:50:22;98171.97;;;9.51
66180;BMP280;52986;44.028;20.466;2023-05-07T00:52:48;98175.19;;;9.46
66180;BMP280;52986;44.028;20.466;2023-05-07T00:55:14;98170.91;;;9.49
66180;BMP280;52986;44.028;20.466;2023-05-07T00:57:41;98175.53;;;9.48
66180;BMP280;52986;44.028;20.466;2023-05-07T01:00:08;98174.84;;;9.44
66180;BMP280;52986;44.028;20.466;2023-05-07T01:02:35;98170.06;;;9.52
66180;BMP280;52986;44.028;20.466;2023-05-07T01:05:01;98165.91;;;9.51
66180;BMP280;52986;44.028;20.466;2023-05-07T01:07:29;98171.34;;;9.47
66180;BMP280;52986;44.028;20.466;2023-05-07T01:09:56;98168.00;;;9.43
66180;BMP280;52986;44.028;20.466;2023-05-07T01:12:22;98168.31;;;9.45
66180;BMP280;52986;44.028;20.466;2023-05-07T01:14:48;98167.25;;;9.42
66180;BMP280;52986;44.028;20.466;2023-05-07T01:17:15;98162.00;;;9.39
66180;BMP280;52986;44.028;20.466;2023-05-07T01:19:41;98156.84;;;9.32
66180;BMP280;52986;44.028;20.466;2023-05-07T01:22:10;98162.50;;;9.21
66180;BMP280;52986;44.028;20.466;2023-05-07T01:24:40;98171.53;;;9.11
66180;BMP280;52986;44.028;20.466;2023-05-07T01:27:05;98163.69;;;9.04
66180;BMP280;52986;44.028;20.466;2023-05-07T01:29:31;98163.34;;;9.02
66180;BMP280;52986;44.028;20.466;2023-05-07T01:31:58;98168.31;;;9.03
66180;BMP280;52986;44.028;20.466;2023-05-07T01:34:25;98168.31;;;9.03
66180;BMP280;52986;44.028;20.466;2023-05-07T01:36:53;98170.28;;;8.99
66180;BMP280;52986;44.028;20.466;2023-05-07T01:39:18;98167.38;;;8.94
66180;BMP280;52986;44.028;20.466;2023-05-07T01:41:44;98170.22;;;8.87
66180;BMP280;52986;44.028;20.466;2023-05-07T01:44:12;98166.47;;;8.84
66180;BMP280;52986;44.028;20.466;2023-05-07T01:46:38;98167.81;;;8.92
66180;BMP280;52986;44.028;20.466;2023-05-07T01:49:03;98166.94;;;8.95
66180;BMP280;52986;44.028;20.466;2023-05-07T01:51:29;98165.53;;;8.91
66180;BMP280;52986;44.028;20.466;2023-05-07T01:53:55;98166.38;;;8.88
66180;BMP280;52986;44.028;20.466;2023-05-07T01:56:21;98163.63;;;8.91
66180;BMP280;52986;44.028;20.466;2023-05-07T01:58:46;98161.09;;;9.00
66180;BMP280;52986;44.028;20.466;2023-05-07T02:01:13;98166.78;;;9.02
66180;BMP280;52986;44.028;20.466;2023-05-07T02:03:38;98163.97;;;8.93
66180;BMP280;52986;44.028;20.466;2023-05-07T02:06:04;98164.53;;;8.85
66180;BMP280;52986;44.028;20.466;2023-05-07T02:08:29;98164.31;;;8.79
66180;BMP280;52986;44.028;20.466;2023-05-07T02:10:55;98164.06;;;8.73
66180;BMP280;52986;44.028;20.466;2023-05-07T02:13:20;98172.88;;;8.70
66180;BMP280;52986;44.028;20.466;2023-05-07T02:15:47;98158.22;;;8.62
66180;BMP280;52986;44.028;20.466;2023-05-07T02:18:16;98163.28;;;8.57
66180;BMP280;52986;44.028;20.466;2023-05-07T02:20:41;98170.38;;;8.47
66180;BMP280;52986;44.028;20.466;2023-05-07T02:23:06;98163.88;;;8.48
66180;BMP280;52986;44.028;20.466;2023-05-07T02:25:32;98156.69;;;8.45
66180;BMP280;52986;44.028;20.466;2023-05-07T02:27:57;98160.63;;;8.40
66180;BMP280;52986;44.028;20.466;2023-05-07T02:30:23;98153.09;;;8.35
66180;BMP280;52986;44.028;20.466;2023-05-07T02:32:48;98153.19;;;8.32
66180;BMP280;52986;44.028;20.466;2023-05-07T02:35:14;98152.34;;;8.35
66180;BMP280;52986;44.028;20.466;2023-05-07T02:37:39;98151.63;;;8.34
66180;BMP280;52986;44.028;20.466;2023-05-07T02:40:05;98153.09;;;8.35
66180;BMP280;52986;44.028;20.466;2023-05-07T02:42:31;98151.63;;;8.34
66180;BMP280;52986;44.028;20.466;2023-05-07T02:44:56;98154.84;;;8.26
66180;BMP280;52986;44.028;20.466;2023-05-07T02:47:21;98151.94;;;8.20
66180;BMP280;52986;44.028;20.466;2023-05-07T02:49:47;98152.84;;;8.30
66180;BMP280;52986;44.028;20.466;2023-05-07T02:52:13;98154.38;;;8.31
66180;BMP280;52986;44.028;20.466;2023-05-07T02:54:38;98160.78;;;8.33
66180;BMP280;52986;44.028;20.466;2023-05-07T02:57:03;98165.25;;;8.36
66180;BMP280;52986;44.028;20.466;2023-05-07T02:59:29;98166.44;;;8.35
66180;BMP280;52986;44.028;20.466;2023-05-07T03:01:54;98160.69;;;8.37
66180;BMP280;52986;44.028;20.466;2023-05-07T03:04:19;98156.94;;;8.34
66180;BMP280;52986;44.028;20.466;2023-05-07T03:06:45;98159.53;;;8.38
66180;BMP280;52986;44.028;20.466;2023-05-07T03:09:10;98158.78;;;8.37
66180;BMP280;52986;44.028;20.466;2023-05-07T03:11:36;98164.78;;;8.41
66180;BMP280;52986;44.028;20.466;2023-05-07T03:14:01;98162.03;;;8.45
66180;BMP280;52986;44.028;20.466;2023-05-07T03:16:27;98170.78;;;8.45
66180;BMP280;52986;44.028;20.466;2023-05-07T03:18:52;98173.97;;;8.57
66180;BMP280;52986;44.028;20.466;2023-05-07T03:21:18;98175.22;;;8.68
66180;BMP280;52986;44.028;20.466;2023-05-07T03:23:43;98179.66;;;8.75
66180;BMP280;52986;44.028;20.466;2023-05-07T03:26:09;98177.16;;;8.68
66180;BMP280;52986;44.028;20.466;2023-05-07T03:28:34;98173.63;;;8.71
66180;BMP280;52986;44.028;20.466;2023-05-07T03:31:00;98185.16;;;8.68
66180;BMP280;52986;44.028;20.466;2023-05-07T03:33:25;98190.25;;;8.62
66180;BMP280;52986;44.028;20.466;2023-05-07T03:35:52;98188.22;;;8.66
66180;BMP280;52986;44.028;20.466;2023-05-07T03:38:17;98184.69;;;8.73
66180;BMP280;52986;44.028;20.466;2023-05-07T03:40:43;98181.22;;;8.72
66180;BMP280;52986;44.028;20.466;2023-05-07T03:43:08;98178.66;;;8.69
66180;BMP280;52986;44.028;20.466;2023-05-07T03:45:34;98185.91;;;8.68
66180;BMP280;52986;44.028;20.466;2023-05-07T03:47:59;98188.16;;;8.70
66180;BMP280;52986;44.028;20.466;2023-05-07T03:50:24;98194.06;;;8.77
66180;BMP280;52986;44.028;20.466;2023-05-07T03:52:50;98196.34;;;8.79
66180;BMP280;52986;44.028;20.466;2023-05-07T03:55:15;98198.09;;;8.86
66180;BMP280;52986;44.028;20.466;2023-05-07T03:57:40;98199.00;;;8.95
66180;BMP280;52986;44.028;20.466;2023-05-07T04:00:06;98198.00;;;9.05
66180;BMP280;52986;44.028;20.466;2023-05-07T04:02:33;98199.13;;;9.21
66180;BMP280;52986;44.028;20.466;2023-05-07T04:04:58;98203.56;;;9.27
66180;BMP280;52986;44.028;20.466;2023-05-07T04:07:23;98209.13;;;9.33
66180;BMP280;52986;44.028;20.466;2023-05-07T04:09:49;98209.75;;;9.53
66180;BMP280;52986;44.028;20.466;2023-05-07T04:12:14;98214.84;;;9.64
66180;BMP280;52986;44.028;20.466;2023-05-07T04:14:40;98208.53;;;9.70
66180;BMP280;52986;44.028;20.466;2023-05-07T04:17:05;98215.41;;;9.84
66180;BMP280;52986;44.028;20.466;2023-05-07T04:19:33;98214.78;;;9.93
66180;BMP280;52986;44.028;20.466;2023-05-07T04:21:58;98211.56;;;9.98
66180;BMP280;52986;44.028;20.466;2023-05-07T04:24:24;98220.59;;;10.04
66180;BMP280;52986;44.028;20.466;2023-05-07T04:26:50;98221.03;;;10.15
66180;BMP280;52986;44.028;20.466;2023-05-07T04:29:16;98223.50;;;10.35
66180;BMP280;52986;44.028;20.466;2023-05-07T04:31:44;98229.28;;;10.59
66180;BMP280;52986;44.028;20.466;2023-05-07T04:34:11;98221.94;;;10.72
66180;BMP280;52986;44.028;20.466;2023-05-07T04:36:38;98223.97;;;10.93
66180;BMP280;52986;44.028;20.466;2023-05-07T04:39:03;98227.88;;;11.14
66180;BMP280;52986;44.028;20.466;2023-05-07T04:41:29;98230.66;;;11.23
66180;BMP280;52986;44.028;20.466;2023-05-07T04:43:54;98235.09;;;11.39
66180;BMP280;52986;44.028;20.466;2023-05-07T04:46:20;98233.41;;;11.54
66180;BMP280;52986;44.028;20.466;2023-05-07T04:48:45;98236.66;;;11.71
66180;BMP280;52986;44.028;20.466;2023-05-07T04:51:11;98234.88;;;11.99
66180;BMP280;52986;44.028;20.466;2023-05-07T04:53:37;98241.78;;;12.09
66180;BMP280;52986;44.028;20.466;2023-05-07T04:56:02;98243.91;;;12.24
66180;BMP280;52986;44.028;20.466;2023-05-07T04:58:28;98238.66;;;12.51
66180;BMP280;52986;44.028;20.466;2023-05-07T05:00:57;98242.59;;;12.68
66180;BMP280;52986;44.028;20.466;2023-05-07T05:03:23;98243.38;;;12.96
66180;BMP280;52986;44.028;20.466;2023-05-07T05:05:52;98243.25;;;13.09
66180;BMP280;52986;44.028;20.466;2023-05-07T05:08:18;98242.50;;;13.36
66180;BMP280;52986;44.028;20.466;2023-05-07T05:10:43;98247.41;;;13.46
66180;BMP280;52986;44.028;20.466;2023-05-07T05:13:09;98240.22;;;13.53
66180;BMP280;52986;44.028;20.466;2023-05-07T05:15:35;98245.72;;;13.76
66180;BMP280;52986;44.028;20.466;2023-05-07T05:18:00;98241.31;;;13.97
66180;BMP280;52986;44.028;20.466;2023-05-07T05:20:26;98245.00;;;14.18
66180;BMP280;52986;44.028;20.466;2023-05-07T05:22:51;98246.97;;;14.41
66180;BMP280;52986;44.028;20.466;2023-05-07T05:25:17;98242.59;;;14.68
66180;BMP280;52986;44.028;20.466;2023-05-07T05:27:42;98240.94;;;14.94
66180;BMP280;52986;44.028;20.466;2023-05-07T05:30:08;98246.75;;;15.17
66180;BMP280;52986;44.028;20.466;2023-05-07T05:32:33;98242.78;;;15.56
66180;BMP280;52986;44.028;20.466;2023-05-07T05:34:59;98241.56;;;15.87
66180;BMP280;52986;44.028;20.466;2023-05-07T05:37:25;98241.94;;;16.15
66180;BMP280;52986;44.028;20.466;2023-05-07T05:39:50;98238.63;;;16.40
66180;BMP280;52986;44.028;20.466;2023-05-07T05:42:16;98234.72;;;16.61
66180;BMP280;52986;44.028;20.466;2023-05-07T05:44:41;98232.44;;;17.00
66180;BMP280;52986;44.028;20.466;2023-05-07T05:47:06;98236.81;;;17.24
66180;BMP280;52986;44.028;20.466;2023-05-07T05:49:32;98237.88;;;17.58
66180;BMP280;52986;44.028;20.466;2023-05-07T05:51:57;98230.91;;;17.83
66180;BMP280;52986;44.028;20.466;2023-05-07T05:54:23;98242.59;;;18.00
66180;BMP280;52986;44.028;20.466;2023-05-07T05:56:48;98244.75;;;18.33
66180;BMP280;52986;44.028;20.466;2023-05-07T05:59:14;98245.84;;;18.63
66180;BMP280;52986;44.028;20.466;2023-05-07T06:01:40;98248.66;;;18.97
66180;BMP280;52986;44.028;20.466;2023-05-07T06:04:05;98242.25;;;19.11
66180;BMP280;52986;44.028;20.466;2023-05-07T06:06:30;98244.25;;;19.27
66180;BMP280;52986;44.028;20.466;2023-05-07T06:08:57;98234.63;;;19.32
66180;BMP280;52986;44.028;20.466;2023-05-07T06:11:22;98236.34;;;19.40
66180;BMP280;52986;44.028;20.466;2023-05-07T06:13:48;98238.56;;;19.64
66180;BMP280;52986;44.028;20.466;2023-05-07T06:16:14;98238.53;;;19.92
66180;BMP280;52986;44.028;20.466;2023-05-07T06:18:40;98236.94;;;20.25
66180;BMP280;52986;44.028;20.466;2023-05-07T06:21:05;98237.22;;;20.73
66180;BMP280;52986;44.028;20.466;2023-05-07T06:23:30;98230.53;;;21.04
66180;BMP280;52986;44.028;20.466;2023-05-07T06:25:56;98235.53;;;21.30
66180;BMP280;52986;44.028;20.466;2023-05-07T06:28:21;98227.59;;;21.62
66180;BMP280;52986;44.028;20.466;2023-05-07T06:30:47;98222.28;;;21.94
66180;BMP280;52986;44.028;20.466;2023-05-07T06:33:15;98223.81;;;22.08
66180;BMP280;52986;44.028;20.466;2023-05-07T06:35:40;98218.69;;;22.42
66180;BMP280;52986;44.028;20.466;2023-05-07T06:38:05;98213.66;;;22.65
66180;BMP280;52986;44.028;20.466;2023-05-07T06:40:31;98218.75;;;23.06
66180;BMP280;52986;44.028;20.466;2023-05-07T06:42:56;98216.56;;;23.18
66180;BMP280;52986;44.028;20.466;2023-05-07T06:45:21;98223.09;;;23.67
66180;BMP280;52986;44.028;20.466;2023-05-07T06:47:47;98222.63;;;24.16
66180;BMP280;52986;44.028;20.466;2023-05-07T06:50:12;98224.19;;;24.58
66180;BMP280;52986;44.028;20.466;2023-05-07T06:52:38;98220.38;;;24.61
66180;BMP280;52986;44.028;20.466;2023-05-07T06:55:04;98216.69;;;25.00
66180;BMP280;52986;44.028;20.466;2023-05-07T06:57:29;98214.19;;;25.38
66180;BMP280;52986;44.028;20.466;2023-05-07T06:59:55;98208.53;;;26.39
66180;BMP280;52986;44.028;20.466;2023-05-07T07:02:20;98211.22;;;27.85
66180;BMP280;52986;44.028;20.466;2023-05-07T07:04:45;98216.81;;;29.19
66180;BMP280;52986;44.028;20.466;2023-05-07T07:07:11;98213.88;;;30.51
66180;BMP280;52986;44.028;20.466;2023-05-07T07:09:36;98210.94;;;30.30
66180;BMP280;52986;44.028;20.466;2023-05-07T07:12:01;98206.97;;;31.27
66180;BMP280;52986;44.028;20.466;2023-05-07T07:14:27;98210.53;;;32.39
66180;BMP280;52986;44.028;20.466;2023-05-07T07:16:52;98218.94;;;32.72
66180;BMP280;52986;44.028;20.466;2023-05-07T07:19:18;98217.31;;;33.56
66180;BMP280;52986;44.028;20.466;2023-05-07T07:21:45;98210.53;;;34.40
66180;BMP280;52986;44.028;20.466;2023-05-07T07:24:10;98211.31;;;35.42
66180;BMP280;52986;44.028;20.466;2023-05-07T07:26:36;98212.88;;;33.74
66180;BMP280;52986;44.028;20.466;2023-05-07T07:29:01;98218.38;;;35.84
66180;BMP280;52986;44.028;20.466;2023-05-07T07:31:26;98228.06;;;36.10
66180;BMP280;52986;44.028;20.466;2023-05-07T07:33:52;98223.22;;;37.12
66180;BMP280;52986;44.028;20.466;2023-05-07T07:36:17;98228.84;;;37.28
66180;BMP280;52986;44.028;20.466;2023-05-07T07:38:43;98224.88;;;37.48
66180;BMP280;52986;44.028;20.466;2023-05-07T07:41:08;98233.13;;;38.11
66180;BMP280;52986;44.028;20.466;2023-05-07T07:43:34;98223.22;;;39.14
66180;BMP280;52986;44.028;20.466;2023-05-07T07:46:00;98215.97;;;39.27
66180;BMP280;52986;44.028;20.466;2023-05-07T07:48:26;98225.00;;;40.04
66180;BMP280;52986;44.028;20.466;2023-05-07T07:50:51;98231.13;;;40.20
66180;BMP280;52986;44.028;20.466;2023-05-07T07:53:17;98230.00;;;40.08
66180;BMP280;52986;44.028;20.466;2023-05-07T07:55:42;98224.56;;;39.72
66180;BMP280;52986;44.028;20.466;2023-05-07T07:58:07;98216.44;;;40.67
66180;BMP280;52986;44.028;20.466;2023-05-07T08:00:33;98226.69;;;41.55
66180;BMP280;52986;44.028;20.466;2023-05-07T08:02:58;98225.44;;;41.11
66180;BMP280;52986;44.028;20.466;2023-05-07T08:05:24;98230.44;;;40.43
66180;BMP280;52986;44.028;20.466;2023-05-07T08:07:50;98227.63;;;41.13
66180;BMP280;52986;44.028;20.466;2023-05-07T08:10:17;98227.84;;;41.21
66180;BMP280;52986;44.028;20.466;2023-05-07T08:12:49;98221.31;;;41.40
66180;BMP280;52986;44.028;20.466;2023-05-07T08:15:15;98226.63;;;41.28
66180;BMP280;52986;44.028;20.466;2023-05-07T08:17:41;98230.25;;;41.06
66180;BMP280;52986;44.028;20.466;2023-05-07T08:20:07;98226.63;;;41.02
66180;BMP280;52986;44.028;20.466;2023-05-07T08:22:33;98239.72;;;41.96
66180;BMP280;52986;44.028;20.466;2023-05-07T08:24:59;98237.34;;;41.87
66180;BMP280;52986;44.028;20.466;2023-05-07T08:27:25;98237.25;;;42.74
66180;BMP280;52986;44.028;20.466;2023-05-07T08:29:50;98240.03;;;42.40
66180;BMP280;52986;44.028;20.466;2023-05-07T08:32:16;98243.97;;;42.59
66180;BMP280;52986;44.028;20.466;2023-05-07T08:34:41;98242.75;;;42.36
66180;BMP280;52986;44.028;20.466;2023-05-07T08:37:06;98241.69;;;41.38
66180;BMP280;52986;44.028;20.466;2023-05-07T08:39:32;98235.97;;;40.85
66180;BMP280;52986;44.028;20.466;2023-05-07T08:42:00;98233.06;;;40.37
66180;BMP280;52986;44.028;20.466;2023-05-07T08:44:28;98244.97;;;41.05
66180;BMP280;52986;44.028;20.466;2023-05-07T08:46:56;98246.91;;;41.76
66180;BMP280;52986;44.028;20.466;2023-05-07T08:49:21;98247.72;;;42.38
66180;BMP280;52986;44.028;20.466;2023-05-07T08:51:47;98235.16;;;42.13
66180;BMP280;52986;44.028;20.466;2023-05-07T08:54:15;98240.66;;;41.51
66180;BMP280;52986;44.028;20.466;2023-05-07T08:56:41;98239.22;;;42.99
66180;BMP280;52986;44.028;20.466;2023-05-07T08:59:06;98238.25;;;42.87
66180;BMP280;52986;44.028;20.466;2023-05-07T09:01:32;98238.13;;;42.49
66180;BMP280;52986;44.028;20.466;2023-05-07T09:04:00;98234.97;;;43.36
66180;BMP280;52986;44.028;20.466;2023-05-07T09:06:26;98234.09;;;42.92
66180;BMP280;52986;44.028;20.466;2023-05-07T09:08:53;98238.69;;;42.75
66180;BMP280;52986;44.028;20.466;2023-05-07T09:11:22;98236.81;;;43.21
66180;BMP280;52986;44.028;20.466;2023-05-07T09:13:49;98226.31;;;44.08
66180;BMP280;52986;44.028;20.466;2023-05-07T09:16:20;98231.88;;;44.04
66180;BMP280;52986;44.028;20.466;2023-05-07T09:18:49;98229.38;;;44.24
66180;BMP280;52986;44.028;20.466;2023-05-07T09:21:16;98232.78;;;44.66
66180;BMP280;52986;44.028;20.466;2023-05-07T09:23:42;98229.13;;;45.20
66180;BMP280;52986;44.028;20.466;2023-05-07T09:26:08;98218.34;;;45.80
66180;BMP280;52986;44.028;20.466;2023-05-07T09:28:43;98225.81;;;44.75
66180;BMP280;52986;44.028;20.466;2023-05-07T09:31:10;98222.28;;;45.43
66180;BMP280;52986;44.028;20.466;2023-05-07T09:33:35;98225.13;;;45.45
66180;BMP280;52986;44.028;20.466;2023-05-07T09:36:08;98218.22;;;44.92
66180;BMP280;52986;44.028;20.466;2023-05-07T09:38:34;98227.69;;;44.07
66180;BMP280;52986;44.028;20.466;2023-05-07T09:41:11;98227.06;;;46.12
66180;BMP280;52986;44.028;20.466;2023-05-07T09:43:38;98227.41;;;46.95
66180;BMP280;52986;44.028;20.466;2023-05-07T09:46:11;98220.22;;;46.62
66180;BMP280;52986;44.028;20.466;2023-05-07T09:48:38;98215.38;;;47.39
66180;BMP280;52986;44.028;20.466;2023-05-07T09:51:18;98218.94;;;47.43
66180;BMP280;52986;44.028;20.466;2023-05-07T09:53:47;98214.59;;;47.99
66180;BMP280;52986;44.028;20.466;2023-05-07T09:56:14;98216.03;;;47.88
66180;BMP280;52986;44.028;20.466;2023-05-07T09:58:41;98221.75;;;47.72
66180;BMP280;52986;44.028;20.466;2023-05-07T10:01:07;98203.25;;;47.99
66180;BMP280;52986;44.028;20.466;2023-05-07T10:03:33;98202.50;;;48.06
66180;BMP280;52986;44.028;20.466;2023-05-07T10:06:00;98207.50;;;47.96
66180;BMP280;52986;44.028;20.466;2023-05-07T10:08:26;98201.84;;;47.72
66180;BMP280;52986;44.028;20.466;2023-05-07T10:10:52;98210.38;;;46.97
66180;BMP280;52986;44.028;20.466;2023-05-07T10:13:19;98202.50;;;46.73
66180;BMP280;52986;44.028;20.466;2023-05-07T10:15:45;98204.69;;;46.93
66180;BMP280;52986;44.028;20.466;2023-05-07T10:18:11;98201.28;;;44.96
66180;BMP280;52986;44.028;20.466;2023-05-07T10:20:37;98196.72;;;45.33
66180;BMP280;52986;44.028;20.466;2023-05-07T10:23:04;98203.50;;;45.86
66180;BMP280;52986;44.028;20.466;2023-05-07T10:25:32;98193.28;;;46.69
66180;BMP280;52986;44.028;20.466;2023-05-07T10:28:03;98186.97;;;47.23
66180;BMP280;52986;44.028;20.466;2023-05-07T10:30:52;98187.63;;;46.81
66180;BMP280;52986;44.028;20.466;2023-05-07T10:33:24;98188.16;;;46.25
66180;BMP280;52986;44.028;20.466;2023-05-07T10:35:50;98178.00;;;44.39
66180;BMP280;52986;44.028;20.466;2023-05-07T10:38:16;98175.34;;;46.22
66180;BMP280;52986;44.028;20.466;2023-05-07T10:40:42;98182.47;;;44.57
66180;BMP280;52986;44.028;20.466;2023-05-07T10:43:08;98174.41;;;45.77
66180;BMP280;52986;44.028;20.466;2023-05-07T10:45:33;98173.16;;;46.04
66180;BMP280;52986;44.028;20.466;2023-05-07T10:48:15;98173.84;;;45.13
66180;BMP280;52986;44.028;20.466;2023-05-07T10:50:42;98172.19;;;45.68
66180;BMP280;52986;44.028;20.466;2023-05-07T10:55:43;98174.91;;;44.77
66180;BMP280;52986;44.028;20.466;2023-05-07T11:00:46;98172.41;;;44.47
66180;BMP280;52986;44.028;20.466;2023-05-07T11:03:12;98170.81;;;44.90
66180;BMP280;52986;44.028;20.466;2023-05-07T11:05:38;98171.13;;;45.25
66180;BMP280;52986;44.028;20.466;2023-05-07T11:08:04;98170.69;;;44.80
66180;BMP280;52986;44.028;20.466;2023-05-07T11:10:50;98186.72;;;42.84
66180;BMP280;52986;44.028;20.466;2023-05-07T11:13:16;98184.41;;;42.43
66180;BMP280;52986;44.028;20.466;2023-05-07T11:15:44;98178.09;;;41.83
66180;BMP280;52986;44.028;20.466;2023-05-07T11:18:10;98168.53;;;41.96
66180;BMP280;52986;44.028;20.466;2023-05-07T11:20:54;98172.25;;;42.02
66180;BMP280;52986;44.028;20.466;2023-05-07T11:26:05;98166.78;;;42.42
66180;BMP280;52986;44.028;20.466;2023-05-07T11:28:35;98167.53;;;40.09
66180;BMP280;52986;44.028;20.466;2023-05-07T11:31:02;98174.38;;;39.61
66180;BMP280;52986;44.028;20.466;2023-05-07T11:33:28;98174.81;;;38.76
66180;BMP280;52986;44.028;20.466;2023-05-07T11:35:54;98177.94;;;37.63
66180;BMP280;52986;44.028;20.466;2023-05-07T11:38:19;98173.34;;;37.53
66180;BMP280;52986;44.028;20.466;2023-05-07T11:40:49;98174.47;;;36.70
66180;BMP280;52986;44.028;20.466;2023-05-07T11:43:15;98163.63;;;36.33
66180;BMP280;52986;44.028;20.466;2023-05-07T11:45:40;98164.38;;;36.20
66180;BMP280;52986;44.028;20.466;2023-05-07T11:48:06;98162.44;;;35.82
66180;BMP280;52986;44.028;20.466;2023-05-07T11:50:31;98160.09;;;35.63
66180;BMP280;52986;44.028;20.466;2023-05-07T11:52:57;98160.28;;;35.53
66180;BMP280;52986;44.028;20.466;2023-05-07T11:55:24;98147.66;;;35.38
66180;BMP280;52986;44.028;20.466;2023-05-07T11:57:50;98150.28;;;35.09
66180;BMP280;52986;44.028;20.466;2023-05-07T12:00:15;98145.84;;;34.16
66180;BMP280;52986;44.028;20.466;2023-05-07T12:02:41;98147.44;;;33.38
66180;BMP280;52986;44.028;20.466;2023-05-07T12:05:07;98150.59;;;32.46
66180;BMP280;52986;44.028;20.466;2023-05-07T12:07:41;98141.44;;;32.64
66180;BMP280;52986;44.028;20.466;2023-05-07T12:10:07;98145.38;;;32.61
66180;BMP280;52986;44.028;20.466;2023-05-07T12:12:40;98141.97;;;31.78
66180;BMP280;52986;44.028;20.466;2023-05-07T12:15:07;98134.25;;;31.17
66180;BMP280;52986;44.028;20.466;2023-05-07T12:17:33;98130.22;;;30.79
66180;BMP280;52986;44.028;20.466;2023-05-07T12:19:58;98127.59;;;30.81
66180;BMP280;52986;44.028;20.466;2023-05-07T12:22:24;98129.63;;;30.71
66180;BMP280;52986;44.028;20.466;2023-05-07T12:24:58;98129.91;;;30.65
66180;BMP280;52986;44.028;20.466;2023-05-07T12:27:25;98124.78;;;30.23
66180;BMP280;52986;44.028;20.466;2023-05-07T12:29:51;98127.91;;;30.01
66180;BMP280;52986;44.028;20.466;2023-05-07T12:32:18;98127.72;;;29.89
66180;BMP280;52986;44.028;20.466;2023-05-07T12:34:44;98125.81;;;29.82
66180;BMP280;52986;44.028;20.466;2023-05-07T12:37:09;98124.81;;;29.60
66180;BMP280;52986;44.028;20.466;2023-05-07T12:39:35;98117.44;;;29.19
66180;BMP280;52986;44.028;20.466;2023-05-07T12:42:00;98132.94;;;29.14
66180;BMP280;52986;44.028;20.466;2023-05-07T12:44:31;98128.81;;;28.71
66180;BMP280;52986;44.028;20.466;2023-05-07T12:46:56;98124.66;;;28.45
66180;BMP280;52986;44.028;20.466;2023-05-07T12:49:23;98127.34;;;28.28
66180;BMP280;52986;44.028;20.466;2023-05-07T12:51:49;98117.72;;;28.19
66180;BMP280;52986;44.028;20.466;2023-05-07T12:54:35;98120.63;;;28.22
66180;BMP280;52986;44.028;20.466;2023-05-07T12:57:04;98115.28;;;27.99
66180;BMP280;52986;44.028;20.466;2023-05-07T12:59:34;98120.13;;;27.91
66180;BMP280;52986;44.028;20.466;2023-05-07T13:02:00;98121.47;;;27.82
66180;BMP280;52986;44.028;20.466;2023-05-07T13:04:25;98114.53;;;27.73
66180;BMP280;52986;44.028;20.466;2023-05-07T13:06:51;98116.03;;;27.67
66180;BMP280;52986;44.028;20.466;2023-05-07T13:09:16;98112.03;;;27.60
66180;BMP280;52986;44.028;20.466;2023-05-07T13:11:41;98102.41;;;27.44
66180;BMP280;52986;44.028;20.466;2023-05-07T13:14:07;98101.38;;;27.24
66180;BMP280;52986;44.028;20.466;2023-05-07T13:16:33;98101.41;;;27.17
66180;BMP280;52986;44.028;20.466;2023-05-07T13:18:58;98093.38;;;27.11
66180;BMP280;52986;44.028;20.466;2023-05-07T13:21:24;98090.47;;;26.94
66180;BMP280;52986;44.028;20.466;2023-05-07T13:23:49;98083.91;;;26.82
66180;BMP280;52986;44.028;20.466;2023-05-07T13:26:14;98089.41;;;26.82
66180;BMP280;52986;44.028;20.466;2023-05-07T13:28:40;98084.66;;;26.75
66180;BMP280;52986;44.028;20.466;2023-05-07T13:31:05;98082.09;;;26.69
66180;BMP280;52986;44.028;20.466;2023-05-07T13:33:31;98078.44;;;26.59
66180;BMP280;52986;44.028;20.466;2023-05-07T13:35:56;98076.28;;;26.50
66180;BMP280;52986;44.028;20.466;2023-05-07T13:38:22;98078.09;;;26.47
66180;BMP280;52986;44.028;20.466;2023-05-07T13:40:47;98071.13;;;26.39
66180;BMP280;52986;44.028;20.466;2023-05-07T13:43:13;98070.44;;;26.38
66180;BMP280;52986;44.028;20.466;2023-05-07T13:45:39;98074.81;;;26.34
66180;BMP280;52986;44.028;20.466;2023-05-07T13:48:05;98064.91;;;26.31
66180;BMP280;52986;44.028;20.466;2023-05-07T13:50:30;98072.41;;;26.23
66180;BMP280;52986;44.028;20.466;2023-05-07T13:52:56;98072.25;;;26.13
66180;BMP280;52986;44.028;20.466;2023-05-07T13:55:23;98068.41;;;26.08
66180;BMP280;52986;44.028;20.466;2023-05-07T13:57:58;98063.25;;;26.12
66180;BMP280;52986;44.028;20.466;2023-05-07T14:00:24;98063.09;;;26.10
66180;BMP280;52986;44.028;20.466;2023-05-07T14:02:50;98061.47;;;26.15